createdAt,value
2022-09-15T00:01:15.794Z,99098.38
2022-09-15T00:03:44.001Z,99093.94
2022-09-15T00:06:12.405Z,99096.56
2022-09-15T00:08:42.530Z,99092.16
2022-09-15T00:11:12.864Z,99091.19
2022-09-15T00:13:41.477Z,99091.19
2022-09-15T00:16:13.622Z,99086.59
2022-09-15T00:18:43.602Z,99073.59
2022-09-15T00:21:13.059Z,99061.84
2022-09-15T00:23:42.920Z,99067.22
2022-09-15T00:26:14.306Z,99068.91
2022-09-15T00:28:43.477Z,99068.91
2022-09-15T00:31:14.319Z,99064.47
2022-09-15T00:33:42.709Z,99061.00
2022-09-15T00:36:15.343Z,99060.16
2022-09-15T00:38:44.982Z,99063.94
2022-09-15T00:41:15.658Z,99063.50
2022-09-15T00:43:48.626Z,99064.19
2022-09-15T00:46:18.551Z,99066.97
2022-09-15T00:48:52.136Z,99065.72
2022-09-15T00:51:24.175Z,99060.31
2022-09-15T00:53:54.061Z,99056.88
2022-09-15T00:56:23.446Z,99059.50
2022-09-15T00:58:55.715Z,99057.00
2022-09-15T01:01:26.867Z,99062.66
2022-09-15T01:03:55.846Z,99059.91
2022-09-15T01:06:30.942Z,99058.38
2022-09-15T01:09:05.617Z,99050.34
2022-09-15T01:11:33.983Z,99052.84
2022-09-15T01:14:02.200Z,99052.84
2022-09-15T01:16:40.425Z,99051.06
2022-09-15T01:19:46.828Z,99050.66
2022-09-15T01:22:31.691Z,99047.06
2022-09-15T01:25:10.992Z,99043.28
2022-09-15T01:28:16.215Z,99043.16
2022-09-15T01:30:52.323Z,99036.09
2022-09-15T01:33:29.232Z,99032.78
2022-09-15T01:36:04.685Z,99030.00
2022-09-15T01:38:42.449Z,99031.81
2022-09-15T01:41:15.590Z,99034.44
2022-09-15T01:43:51.503Z,99025.72
2022-09-15T01:46:24.554Z,99030.69
2022-09-15T01:48:55.110Z,99031.53
2022-09-15T01:51:24.803Z,99027.09
2022-09-15T01:53:54.614Z,99030.41
2022-09-15T01:56:22.549Z,99028.59
2022-09-15T01:58:51.914Z,99022.78
2022-09-15T02:01:28.021Z,99027.09
2022-09-15T02:04:00.659Z,99029.59
2022-09-15T02:06:37.307Z,99022.50
2022-09-15T02:09:12.750Z,99028.06
2022-09-15T02:11:52.177Z,99015.75
2022-09-15T02:14:28.304Z,99017.25
2022-09-15T02:16:57.514Z,99016.28
2022-09-15T02:19:34.221Z,99020.16
2022-09-15T02:22:10.582Z,99026.97
2022-09-15T02:24:43.235Z,99011.44
2022-09-15T02:27:20.259Z,99023.75
2022-09-15T02:29:50.088Z,99013.09
2022-09-15T02:32:23.196Z,99014.06
2022-09-15T02:34:52.713Z,99012.16
2022-09-15T02:37:23.841Z,99011.97
2022-09-15T02:39:57.892Z,99009.91
2022-09-15T02:42:26.925Z,99015.84
2022-09-15T02:44:54.987Z,99015.03
2022-09-15T02:47:24.640Z,99012.56
2022-09-15T02:49:52.791Z,99021.25
2022-09-15T02:52:20.926Z,99022.06
2022-09-15T02:54:50.318Z,99021.13
2022-09-15T02:57:18.430Z,99027.22
2022-09-15T03:00:03.800Z,99023.75
2022-09-15T03:02:32.946Z,99031.50
2022-09-15T03:05:00.673Z,99039.94
2022-09-15T03:07:30.118Z,99039.50
2022-09-15T03:09:58.293Z,99043.25
2022-09-15T03:12:26.551Z,99041.84
2022-09-15T03:14:54.278Z,99046.03
2022-09-15T03:17:22.214Z,99048.06
2022-09-15T03:19:52.051Z,99056.41
2022-09-15T03:22:19.822Z,99053.38
2022-09-15T03:24:47.959Z,99065.59
2022-09-15T03:27:15.685Z,99059.63
2022-09-15T03:29:43.470Z,99067.38
2022-09-15T03:32:11.277Z,99067.38
2022-09-15T03:34:39.105Z,99065.16
2022-09-15T03:37:08.402Z,99078.03
2022-09-15T03:39:36.298Z,99077.91
2022-09-15T03:42:04.800Z,99081.50
2022-09-15T03:44:32.959Z,99080.53
2022-09-15T03:47:01.113Z,99089.25
2022-09-15T03:49:29.061Z,99090.91
2022-09-15T03:51:57.063Z,99090.06
2022-09-15T03:54:26.442Z,99092.41
2022-09-15T03:56:54.456Z,99096.84
2022-09-15T03:59:22.481Z,99097.97
2022-09-15T04:01:50.450Z,99101.28
2022-09-15T04:04:18.581Z,99103.22
2022-09-15T04:06:46.569Z,99113.75
2022-09-15T04:09:14.589Z,99114.00
2022-09-15T04:11:43.663Z,99122.16
2022-09-15T04:14:11.981Z,99115.25
2022-09-15T04:16:40.046Z,99126.00
2022-09-15T04:19:07.978Z,99131.13
2022-09-15T04:21:35.857Z,99125.03
2022-09-15T04:24:04.787Z,99134.00
2022-09-15T04:26:34.751Z,99137.81
2022-09-15T04:29:06.490Z,99144.19
2022-09-15T04:31:34.974Z,99149.97
2022-09-15T04:34:02.922Z,99144.34
2022-09-15T04:36:31.659Z,99152.22
2022-09-15T04:38:59.790Z,99154.53
2022-09-15T04:41:29.683Z,99158.50
2022-09-15T04:43:58.487Z,99167.03
2022-09-15T04:46:27.873Z,99162.44
2022-09-15T04:48:57.343Z,99157.56
2022-09-15T04:51:27.187Z,99163.84
2022-09-15T04:53:55.523Z,99165.94
2022-09-15T04:56:25.591Z,99171.78
2022-09-15T04:58:59.495Z,99170.59
2022-09-15T05:01:35.094Z,99167.03
2022-09-15T05:04:04.300Z,99174.44
2022-09-15T05:06:33.377Z,99177.91
2022-09-15T05:09:02.406Z,99179.69
2022-09-15T05:11:32.817Z,99189.63
2022-09-15T05:14:00.949Z,99187.47
2022-09-15T05:16:31.342Z,99198.63
2022-09-15T05:19:01.217Z,99206.34
2022-09-15T05:21:29.324Z,99204.53
2022-09-15T05:23:57.391Z,99207.94
2022-09-15T05:26:28.316Z,99204.03
2022-09-15T05:28:56.920Z,99214.00
2022-09-15T05:31:26.651Z,99224.25
2022-09-15T05:33:56.006Z,99220.53
2022-09-15T05:36:25.854Z,99224.16
2022-09-15T05:38:56.385Z,99236.63
2022-09-15T05:41:24.925Z,99237.09
2022-09-15T05:43:54.436Z,99246.91
2022-09-15T05:46:22.488Z,99256.47
2022-09-15T05:48:50.523Z,99266.66
2022-09-15T05:51:19.867Z,99272.81
2022-09-15T05:53:47.876Z,99265.00
2022-09-15T05:56:17.126Z,99264.78
2022-09-15T05:58:46.729Z,99271.75
2022-09-15T06:01:17.798Z,99276.06
2022-09-15T06:03:46.226Z,99282.19
2022-09-15T06:06:14.689Z,99285.25
2022-09-15T06:08:48.294Z,99288.94
2022-09-15T06:11:18.460Z,99277.75
2022-09-15T06:13:47.474Z,99281.44
2022-09-15T06:16:18.317Z,99278.00
2022-09-15T06:18:47.356Z,99271.69
2022-09-15T06:21:19.078Z,99291.22
2022-09-15T06:23:53.425Z,99290.97
2022-09-15T06:26:21.684Z,99295.53
2022-09-15T06:28:51.369Z,99297.63
2022-09-15T06:31:20.019Z,99296.09
2022-09-15T06:33:51.326Z,99299.19
2022-09-15T06:36:20.906Z,99299.91
2022-09-15T06:38:51.609Z,99301.22
2022-09-15T06:41:19.816Z,99310.28
2022-09-15T06:43:49.365Z,99319.56
2022-09-15T06:46:19.809Z,99322.66
2022-09-15T06:48:48.723Z,99323.84
2022-09-15T06:51:18.010Z,99316.84
2022-09-15T06:53:46.730Z,99327.91
2022-09-15T06:56:17.806Z,99333.03
2022-09-15T06:58:48.858Z,99333.63
2022-09-15T07:01:22.082Z,99329.09
2022-09-15T07:03:50.447Z,99341.03
2022-09-15T07:06:18.870Z,99341.50
2022-09-15T07:08:47.350Z,99350.19
2022-09-15T07:11:17.578Z,99352.56
2022-09-15T07:13:45.681Z,99356.53
2022-09-15T07:16:15.465Z,99362.84
2022-09-15T07:18:43.942Z,99364.88
2022-09-15T07:21:13.601Z,99355.19
2022-09-15T07:23:41.803Z,99352.56
2022-09-15T07:26:12.472Z,99359.84
2022-09-15T07:28:45.565Z,99370.34
2022-09-15T07:31:16.137Z,99359.94
2022-09-15T07:33:43.998Z,99361.94
2022-09-15T07:36:12.622Z,99372.69
2022-09-15T07:38:42.212Z,99370.50
2022-09-15T07:41:11.937Z,99371.34
2022-09-15T07:43:41.491Z,99385.84
2022-09-15T07:46:09.621Z,99390.50
2022-09-15T07:48:37.652Z,99398.28
2022-09-15T07:51:06.008Z,99398.34
2022-09-15T07:53:34.037Z,99411.38
2022-09-15T07:56:01.990Z,99406.19
2022-09-15T07:58:30.000Z,99408.16
2022-09-15T08:01:04.337Z,99401.91
2022-09-15T08:03:32.366Z,99408.00
2022-09-15T08:06:00.850Z,99401.13
2022-09-15T08:08:29.277Z,99404.28
2022-09-15T08:10:57.554Z,99404.16
2022-09-15T08:13:25.450Z,99411.88
2022-09-15T08:15:53.359Z,99420.03
2022-09-15T08:18:22.645Z,99429.31
2022-09-15T08:20:50.457Z,99435.03
2022-09-15T08:23:18.299Z,99443.28
2022-09-15T08:25:47.655Z,99453.78
2022-09-15T08:28:15.744Z,99455.78
2022-09-15T08:30:43.667Z,99464.91
2022-09-15T08:33:11.671Z,99464.22
2022-09-15T08:35:40.860Z,99461.81
2022-09-15T08:38:09.171Z,99466.63
2022-09-15T08:40:38.685Z,99453.34
2022-09-15T08:43:13.873Z,99455.72
2022-09-15T08:45:51.328Z,99461.44
2022-09-15T08:48:25.677Z,99472.69
2022-09-15T08:50:59.279Z,99479.13
2022-09-15T08:53:33.584Z,99490.28
2022-09-15T08:56:14.326Z,99492.44
2022-09-15T08:58:42.366Z,99494.84
2022-09-15T09:01:23.437Z,99498.25
2022-09-15T09:04:10.961Z,99506.84
2022-09-15T09:06:49.251Z,99505.91
2022-09-15T09:09:24.447Z,99518.22
2022-09-15T09:12:16.160Z,99510.47
2022-09-15T09:14:54.918Z,99517.53
2022-09-15T09:17:39.744Z,99516.66
2022-09-15T09:20:33.369Z,99514.84
2022-09-15T09:23:08.702Z,99519.75
2022-09-15T09:25:37.302Z,99516.38
2022-09-15T09:28:07.745Z,99525.84
2022-09-15T09:30:37.279Z,99521.41
2022-09-15T09:33:20.062Z,99525.72
2022-09-15T09:35:51.512Z,99520.78
2022-09-15T09:38:22.623Z,99527.34
2022-09-15T09:40:51.002Z,99538.91
2022-09-15T09:43:19.098Z,99537.34
2022-09-15T09:45:46.962Z,99532.50
2022-09-15T09:48:19.110Z,99535.38
2022-09-15T09:50:47.876Z,99543.91
2022-09-15T09:53:24.654Z,99539.28
2022-09-15T09:55:53.316Z,99534.88
2022-09-15T09:58:23.255Z,99545.13
2022-09-15T10:00:52.142Z,99543.50
2022-09-15T10:03:22.348Z,99540.63
2022-09-15T10:06:03.703Z,99548.03
2022-09-15T10:08:33.739Z,99540.28
2022-09-15T10:11:06.051Z,99547.91
2022-09-15T10:13:42.559Z,99555.44
2022-09-15T10:16:11.730Z,99550.84
2022-09-15T10:18:40.451Z,99548.75
2022-09-15T10:21:11.167Z,99554.13
2022-09-15T10:23:40.433Z,99553.28
2022-09-15T10:26:23.387Z,99560.31
2022-09-15T10:29:12.716Z,99571.81
2022-09-15T10:31:41.814Z,99562.94
2022-09-15T10:34:27.137Z,99570.97
2022-09-15T10:36:56.200Z,99574.81
2022-09-15T10:39:34.393Z,99574.44
2022-09-15T10:42:12.949Z,99577.06
2022-09-15T10:44:50.712Z,99581.03
2022-09-15T10:47:31.992Z,99586.22
2022-09-15T10:50:13.216Z,99580.78
2022-09-15T10:53:06.351Z,99576.47
2022-09-15T10:55:53.573Z,99566.19
2022-09-15T10:58:45.815Z,99572.59
2022-09-15T11:01:31.629Z,99574.97
2022-09-15T11:04:23.427Z,99567.22
2022-09-15T11:07:00.346Z,99570.16
2022-09-15T11:09:34.965Z,99561.91
2022-09-15T11:12:17.835Z,99567.84
2022-09-15T11:14:57.792Z,99562.91
2022-09-15T11:17:44.810Z,99564.03
2022-09-15T11:20:38.068Z,99564.88
2022-09-15T11:23:16.513Z,99570.41
2022-09-15T11:25:48.449Z,99574.00
2022-09-15T11:28:23.710Z,99575.25
2022-09-15T11:30:57.222Z,99571.78
2022-09-15T11:33:30.700Z,99569.75
2022-09-15T11:36:04.185Z,99572.38
2022-09-15T11:38:40.457Z,99568.63
2022-09-15T11:41:19.984Z,99566.97
2022-09-15T11:44:00.167Z,99561.97
2022-09-15T11:46:39.909Z,99570.28
2022-09-15T11:49:12.215Z,99565.31
2022-09-15T11:51:50.835Z,99558.38
2022-09-15T11:54:25.306Z,99562.53
2022-09-15T11:56:55.058Z,99563.22
2022-09-15T11:59:32.611Z,99561.28
2022-09-15T12:02:11.387Z,99572.50
2022-09-15T12:04:45.434Z,99585.94
2022-09-15T12:07:17.378Z,99581.47
2022-09-15T12:09:45.525Z,99582.78
2022-09-15T12:12:17.061Z,99592.25
2022-09-15T12:14:49.147Z,99602.13
2022-09-15T12:17:26.018Z,99596.03
2022-09-15T12:19:59.975Z,99601.94
2022-09-15T12:22:33.814Z,99594.41
2022-09-15T12:25:06.608Z,99589.91
2022-09-15T12:27:34.747Z,99598.22
2022-09-15T12:30:05.476Z,99593.75
2022-09-15T12:32:35.134Z,99590.69
2022-09-15T12:35:11.380Z,99582.50
2022-09-15T12:37:44.121Z,99591.53
2022-09-15T12:40:34.849Z,99597.19
2022-09-15T12:43:04.488Z,99596.06
2022-09-15T12:45:36.869Z,99600.72
2022-09-15T12:48:08.169Z,99612.22
2022-09-15T12:50:37.979Z,99605.72
2022-09-15T12:53:15.115Z,99606.69
2022-09-15T12:55:51.177Z,99614.16
2022-09-15T12:58:30.307Z,99615.13
2022-09-15T13:01:32.539Z,99616.81
2022-09-15T13:04:23.741Z,99617.09
2022-09-15T13:07:24.713Z,99612.91
2022-09-15T13:09:59.119Z,99623.47
2022-09-15T13:12:33.147Z,99617.09
2022-09-15T13:15:04.173Z,99612.50
2022-09-15T13:17:35.178Z,99611.06
2022-09-15T13:20:10.607Z,99611.59
2022-09-15T13:22:43.763Z,99614.88
2022-09-15T13:25:17.486Z,99613.50
2022-09-15T13:27:49.725Z,99614.97
2022-09-15T13:30:35.551Z,99611.50
2022-09-15T13:33:15.735Z,99597.13
2022-09-15T13:36:11.040Z,99598.63
2022-09-15T13:39:05.637Z,99593.59
2022-09-15T13:42:11.601Z,99607.63
2022-09-15T13:45:29.325Z,99614.81
2022-09-15T13:48:16.038Z,99613.69
2022-09-15T13:50:55.526Z,99608.31
2022-09-15T13:53:37.198Z,99606.91
2022-09-15T13:56:11.235Z,99606.44
2022-09-15T13:59:05.037Z,99609.84
2022-09-15T14:01:34.552Z,99603.38
2022-09-15T14:04:08.200Z,99599.22
2022-09-15T14:06:38.935Z,99602.09
2022-09-15T14:09:10.841Z,99609.75
2022-09-15T14:11:39.578Z,99602.94
2022-09-15T14:14:12.446Z,99609.16
2022-09-15T14:16:40.919Z,99603.09
2022-09-15T14:19:35.275Z,99611.97
2022-09-15T14:22:25.973Z,99609.03
2022-09-15T14:24:54.871Z,99611.81
2022-09-15T14:27:25.663Z,99610.28
2022-09-15T14:29:57.581Z,99610.44
2022-09-15T14:32:27.898Z,99604.72
2022-09-15T14:35:05.441Z,99610.38
2022-09-15T14:37:34.762Z,99608.28
2022-09-15T14:40:17.989Z,99614.34
2022-09-15T14:42:45.846Z,99613.50
2022-09-15T14:48:08.694Z,99610.28
2022-09-15T14:50:38.535Z,99605.66
2022-09-15T14:53:09.376Z,99606.34
2022-09-15T14:55:44.625Z,99605.25
2022-09-15T14:58:21.249Z,99600.84
2022-09-15T15:00:55.812Z,99614.16
2022-09-15T15:03:33.439Z,99599.44
2022-09-15T15:06:28.474Z,99607.91
2022-09-15T15:09:01.470Z,99608.88
2022-09-15T15:11:33.007Z,99609.56
2022-09-15T15:14:02.077Z,99607.25
2022-09-15T15:16:32.865Z,99611.03
2022-09-15T15:19:01.557Z,99612.00
2022-09-15T15:21:39.501Z,99607.16
2022-09-15T15:24:18.385Z,99614.13
2022-09-15T15:26:47.532Z,99606.91
2022-09-15T15:29:42.501Z,99609.66
2022-09-15T15:32:13.937Z,99615.16
2022-09-15T15:34:49.819Z,99617.56
2022-09-15T15:37:26.752Z,99618.22
2022-09-15T15:39:56.009Z,99612.28
2022-09-15T15:42:25.362Z,99622.47
2022-09-15T15:45:01.397Z,99611.91
2022-09-15T15:47:32.243Z,99620.47
2022-09-15T15:50:13.414Z,99619.63
2022-09-15T15:52:43.893Z,99619.22
2022-09-15T15:55:14.912Z,99614.09
2022-09-15T15:57:44.164Z,99614.56
2022-09-15T16:00:21.583Z,99622.31
2022-09-15T16:02:50.979Z,99611.47
2022-09-15T16:05:20.558Z,99616.34
2022-09-15T16:07:52.173Z,99614.94
2022-09-15T16:10:22.614Z,99620.22
2022-09-15T16:12:50.860Z,99620.38
2022-09-15T16:15:20.704Z,99617.31
2022-09-15T16:17:49.645Z,99617.88
2022-09-15T16:20:19.675Z,99623.28
2022-09-15T16:22:49.064Z,99621.63
2022-09-15T16:25:19.791Z,99626.75
2022-09-15T16:27:47.682Z,99628.94
2022-09-15T16:30:15.797Z,99630.97
2022-09-15T16:32:44.050Z,99627.94
2022-09-15T16:35:23.341Z,99622.97
2022-09-15T16:37:52.518Z,99635.00
2022-09-15T16:40:20.476Z,99631.38
2022-09-15T16:42:48.905Z,99630.97
2022-09-15T16:45:26.813Z,99626.44
2022-09-15T16:47:54.770Z,99628.31
2022-09-15T16:50:22.899Z,99633.00
2022-09-15T16:52:53.166Z,99632.16
2022-09-15T16:55:36.200Z,99631.97
2022-09-15T16:58:04.821Z,99629.34
2022-09-15T17:00:36.249Z,99643.69
2022-09-15T17:03:04.624Z,99637.31
2022-09-15T17:05:36.422Z,99636.75
2022-09-15T17:08:06.636Z,99649.97
2022-09-15T17:10:34.860Z,99644.56
2022-09-15T17:13:03.462Z,99641.63
2022-09-15T17:15:35.304Z,99644.56
2022-09-15T17:18:03.392Z,99642.19
2022-09-15T17:20:34.777Z,99656.56
2022-09-15T17:23:17.647Z,99649.06
2022-09-15T17:25:51.235Z,99654.69
2022-09-15T17:28:21.065Z,99650.19
2022-09-15T17:30:50.968Z,99652.94
2022-09-15T17:33:20.386Z,99655.81
2022-09-15T17:35:49.500Z,99650.00
2022-09-15T17:38:20.432Z,99653.56
2022-09-15T17:41:14.818Z,99644.72
2022-09-15T17:43:43.018Z,99649.50
2022-09-15T17:46:10.943Z,99646.16
2022-09-15T17:48:40.075Z,99643.47
2022-09-15T17:51:09.469Z,99650.03
2022-09-15T17:53:38.689Z,99646.22
2022-09-15T17:56:07.009Z,99658.06
2022-09-15T17:58:35.303Z,99650.16
2022-09-15T18:01:04.623Z,99648.63
2022-09-15T18:03:35.105Z,99652.13
2022-09-15T18:06:05.693Z,99656.06
2022-09-15T18:08:34.183Z,99658.94
2022-09-15T18:11:04.909Z,99658.44
2022-09-15T18:13:33.457Z,99659.88
2022-09-15T18:16:06.093Z,99655.94
2022-09-15T18:18:34.222Z,99662.38
2022-09-15T18:21:02.643Z,99669.31
2022-09-15T18:23:30.497Z,99664.53
2022-09-15T18:25:58.652Z,99672.16
2022-09-15T18:28:27.934Z,99673.34
2022-09-15T18:30:56.708Z,99678.84
2022-09-15T18:33:26.093Z,99667.50
2022-09-15T18:35:56.036Z,99675.50
2022-09-15T18:38:24.342Z,99674.44
2022-09-15T18:40:55.339Z,99678.84
2022-09-15T18:43:26.338Z,99682.56
2022-09-15T18:45:59.459Z,99686.13
2022-09-15T18:48:28.544Z,99688.66
2022-09-15T18:50:57.154Z,99688.75
2022-09-15T18:53:25.046Z,99685.16
2022-09-15T18:55:52.965Z,99694.00
2022-09-15T18:58:22.360Z,99698.19
2022-09-15T19:00:50.361Z,99691.84
2022-09-15T19:03:19.433Z,99695.41
2022-09-15T19:05:47.255Z,99705.22
2022-09-15T19:08:15.521Z,99706.91
2022-09-15T19:10:44.253Z,99707.84
2022-09-15T19:13:14.058Z,99717.25
2022-09-15T19:15:43.899Z,99720.00
2022-09-15T19:18:12.071Z,99721.44
2022-09-15T19:20:42.219Z,99738.75
2022-09-15T19:23:10.555Z,99744.47
2022-09-15T19:25:38.485Z,99743.16
2022-09-15T19:28:06.337Z,99738.88
2022-09-15T19:30:34.730Z,99750.34
2022-09-15T19:33:03.567Z,99751.97
2022-09-15T19:35:31.494Z,99752.66
2022-09-15T19:38:01.138Z,99753.50
2022-09-15T19:40:29.594Z,99761.00
2022-09-15T19:42:57.682Z,99761.00
2022-09-15T19:45:25.482Z,99770.06
2022-09-15T19:47:53.327Z,99762.56
2022-09-15T19:50:21.290Z,99765.53
2022-09-15T19:52:49.795Z,99764.28
2022-09-15T19:55:19.350Z,99767.97
2022-09-15T19:57:47.473Z,99776.13
2022-09-15T20:00:16.040Z,99765.38
2022-09-15T20:02:48.184Z,99776.44
2022-09-15T20:05:16.349Z,99769.41
2022-09-15T20:07:47.952Z,99779.31
2022-09-15T20:10:16.283Z,99778.72
2022-09-15T20:12:45.510Z,99774.53
2022-09-15T20:15:13.456Z,99776.09
2022-09-15T20:17:42.453Z,99777.88
2022-09-15T20:20:12.406Z,99771.34
2022-09-15T20:22:40.528Z,99772.19
2022-09-15T20:25:08.859Z,99774.31
2022-09-15T20:27:37.050Z,99774.16
2022-09-15T20:30:07.998Z,99770.59
2022-09-15T20:32:36.379Z,99786.13
2022-09-15T20:35:04.873Z,99773.41
2022-09-15T20:37:37.420Z,99776.78
2022-09-15T20:40:06.515Z,99781.09
2022-09-15T20:42:34.636Z,99787.44
2022-09-15T20:45:03.013Z,99795.75
2022-09-15T20:47:32.203Z,99794.47
2022-09-15T20:50:00.091Z,99790.75
2022-09-15T20:52:34.763Z,99805.88
2022-09-15T20:55:07.218Z,99802.75
2022-09-15T20:57:35.008Z,99803.75
2022-09-15T21:00:04.769Z,99795.75
2022-09-15T21:02:34.006Z,99806.13
2022-09-15T21:05:02.805Z,99794.56
2022-09-15T21:07:31.555Z,99798.00
2022-09-15T21:09:59.381Z,99798.13
2022-09-15T21:12:27.413Z,99791.59
2022-09-15T21:14:55.601Z,99795.47
2022-09-15T21:17:23.431Z,99795.81
2022-09-15T21:19:52.614Z,99795.22
2022-09-15T21:22:20.472Z,99807.13
2022-09-15T21:24:48.206Z,99807.94
2022-09-15T21:27:28.789Z,99802.97
2022-09-15T21:29:56.782Z,99807.00
2022-09-15T21:32:25.290Z,99802.38
2022-09-15T21:34:55.922Z,99801.84
2022-09-15T21:37:23.775Z,99809.75
2022-09-15T21:39:51.650Z,99816.31
2022-09-15T21:42:19.561Z,99821.31
2022-09-15T21:44:47.298Z,99826.28
2022-09-15T21:47:15.888Z,99821.50
2022-09-15T21:49:43.733Z,99825.72
2022-09-15T21:52:13.184Z,99829.38
2022-09-15T21:54:40.965Z,99832.50
2022-09-15T21:57:09.076Z,99827.25
2022-09-15T21:59:37.172Z,99834.63
2022-09-15T22:02:05.403Z,99832.31
2022-09-15T22:04:34.421Z,99828.75
2022-09-15T22:07:04.615Z,99837.28
2022-09-15T22:09:34.113Z,99832.47
2022-09-15T22:12:02.333Z,99836.13
2022-09-15T22:14:30.043Z,99839.72
2022-09-15T22:16:58.217Z,99837.94
2022-09-15T22:19:26.746Z,99844.34
2022-09-15T22:21:54.523Z,99840.75
2022-09-15T22:24:22.314Z,99840.16
2022-09-15T22:26:51.552Z,99839.44
2022-09-15T22:29:19.316Z,99837.97
2022-09-15T22:31:47.537Z,99840.16
2022-09-15T22:34:16.074Z,99839.09
2022-09-15T22:36:44.186Z,99841.00
2022-09-15T22:39:12.990Z,99837.47
2022-09-15T22:41:41.227Z,99843.66
2022-09-15T22:44:19.493Z,99837.47
2022-09-15T22:46:47.382Z,99840.19
2022-09-15T22:49:15.168Z,99840.19
2022-09-15T22:51:43.683Z,99849.97
2022-09-15T22:54:11.526Z,99846.50
2022-09-15T22:56:39.365Z,99847.34
2022-09-15T22:59:07.156Z,99840.31
2022-09-15T23:01:36.530Z,99840.34
2022-09-15T23:04:04.454Z,99843.91
2022-09-15T23:06:34.079Z,99838.13
2022-09-15T23:09:05.873Z,99840.66
2022-09-15T23:11:34.140Z,99839.59
2022-09-15T23:14:03.405Z,99843.38
2022-09-15T23:16:32.267Z,99830.81
2022-09-15T23:19:01.863Z,99835.19
2022-09-15T23:21:29.735Z,99838.88
2022-09-15T23:23:59.270Z,99836.09
2022-09-15T23:26:28.336Z,99833.00
2022-09-15T23:28:56.816Z,99836.56
2022-09-15T23:31:24.719Z,99842.13
2022-09-15T23:33:52.548Z,99844.13
2022-09-15T23:36:22.185Z,99842.03
2022-09-15T23:38:50.764Z,99842.78
2022-09-15T23:41:19.505Z,99843.72
2022-09-15T23:43:47.878Z,99842.44
2022-09-15T23:46:16.040Z,99843.81
2022-09-15T23:48:44.011Z,99843.22
2022-09-15T23:51:12.204Z,99848.22
2022-09-15T23:53:41.367Z,99846.75
2022-09-15T23:56:09.432Z,99847.69
2022-09-15T23:58:37.928Z,99844.88
